CSUN New Campus Station -PST Time - Most Recent Data on bottom of page




           Date/Time      Avg      Avg      Max     Wind      Avg      Max      Min      Avg      Avg    Total      Avg     Batt
                         Wind     Wind     Wind      Dir     Temp     Temp     Temp       RH      Bar     Rain    Solar     Volt
                      Spd MPH      Dir  Spd MPH   at Max    Deg_F    Deg_F    Deg_F        % Press_mb   Inches     W/m2      Min
--------------------------------------------------------------------------------------------------------------------------------
    11/28/2016 00:00      1.3      285      2.6      293     50.5     51.6     49.2       39     1015     0.00        0     13.4
    11/28/2016 00:15      0.3      295      1.9      309     48.2     49.3     47.5       43     1015     0.00        0     13.4
    11/28/2016 00:30      0.0      340      0.4      339     47.4     47.8     47.0       46     1015     0.00        0     13.4
    11/28/2016 00:45      0.0      319      0.7      325     46.5     47.1     46.1       48     1015     0.00        0     13.4
    11/28/2016 01:00      0.0      296      1.2      291     45.8     46.4     45.1       52     1015     0.00        0     13.4
    11/28/2016 01:15      0.0      326      1.3      321     45.1     45.4     44.5       53     1014     0.00        0     13.4
    11/28/2016 01:30      0.3      331      2.6      329     45.4     46.3     44.7       50     1014     0.00        0     13.5
    11/28/2016 01:45      0.1      290      4.0      250     45.6     46.3     44.4       55     1014     0.00        0     13.5
    11/28/2016 02:00      0.4      256      2.2      260     44.1     44.6     43.8       57     1014     0.00        0     13.5
    11/28/2016 02:15      0.6      283      2.1      281     43.9     44.1     43.6       57     1014     0.00        0     13.5
    11/28/2016 02:30      0.7      316      5.9        0     43.8     44.2     43.5       57     1014     0.00        0     13.5
    11/28/2016 02:45      1.0      249      4.4      246     44.0     44.4     43.6       56     1014     0.00        0     13.5
    11/28/2016 03:00      0.4      223      1.9      249     45.2     45.6     44.2       53     1014     0.00        0     13.5
    11/28/2016 03:15      0.0        0      0.0      227     44.4     45.3     43.7       58     1014     0.00        0     13.5
    11/28/2016 03:30      0.0        0      0.0      308     43.4     44.0     42.6       61     1014     0.00        0     13.5
    11/28/2016 03:45      0.0        0      0.0      318     42.3     42.7     41.8       63     1014     0.00        0     13.5
    11/28/2016 04:00      1.1      159      4.3      157     42.1     42.7     41.7       62     1014     0.00        0     13.5
    11/28/2016 04:15      0.0        0      0.0      313     42.4     42.6     42.1       63     1014     0.00        0     13.5
    11/28/2016 04:30      0.0        0      0.0      319     42.2     42.4     41.8       64     1014     0.00        0     13.5
    11/28/2016 04:45      0.0        0      0.0      230     42.0     42.2     41.8       66     1014     0.00        0     13.5
    11/28/2016 05:00      0.0      337      0.5      337     42.2     42.6     41.8       65     1014     0.00        0     13.5
    11/28/2016 05:15      0.0        0      0.0      190     41.7     42.1     41.3       66     1014     0.00        0     13.5
    11/28/2016 05:30      0.0        0      0.0      310     41.9     42.4     41.5       64     1014     0.00        0     13.5
    11/28/2016 05:45      0.0        0      0.0      349     42.2     42.6     41.7       65     1014     0.00        0     13.5
    11/28/2016 06:00      0.0        0      0.0      142     41.7     42.1     41.4       67     1014     0.00        0     13.5
    11/28/2016 06:15      0.1       55      2.0       49     42.1     42.4     41.7       66     1014     0.00        0     13.5
    11/28/2016 06:30      0.0        0      0.0      287     41.5     42.1     41.2       68     1014     0.00        0     13.5
    11/28/2016 06:45      0.0       24      0.4       22     41.3     41.5     41.0       69     1014     0.00        2     13.5
    11/28/2016 07:00      0.3       33      2.8       29     42.5     43.5     41.2       62     1014     0.00       10     13.5
    11/28/2016 07:15      0.0        0      0.0       32     42.6     43.4     42.2       66     1014     0.00       26     13.5
    11/28/2016 07:30      0.0        0      0.0      125     43.0     43.6     42.4       66     1014     0.00       34     13.5
    11/28/2016 07:45      0.0        0      0.0       96     44.2     44.9     43.5       63     1014     0.00       45     13.5
    11/28/2016 08:00      0.0        0      0.0      299     45.6     46.3     44.7       59     1014     0.00       58     13.4
    11/28/2016 08:15      0.0        0      0.0      295     46.4     46.7     46.0       60     1014     0.00       56     13.4
    11/28/2016 08:30      0.0        0      0.0      312     47.1     48.0     46.5       57     1014     0.00       97     13.4
    11/28/2016 08:45      0.8      164      3.4      166     49.3     50.6     47.8       52     1014     0.00      127     13.4
    11/28/2016 09:00      0.5      128      2.7       89     51.4     53.0     50.5       47     1014     0.00      313     13.4
    11/28/2016 09:15      0.9      114      4.7      131     54.4     55.3     53.0       46     1014     0.00      219     13.3
    11/28/2016 09:30      2.0       95      5.0       84     55.1     55.6     54.7       46     1014     0.00      272     13.3
    11/28/2016 09:45      3.4       77      5.7       93     55.4     55.6     55.0       45     1014     0.00      355     13.3
    11/28/2016 10:00      2.3      107      5.2      129     56.1     57.3     55.1       45     1014     0.00      418     13.2
    11/28/2016 10:15      2.0      121      5.1      125     58.1     58.5     57.1       44     1014     0.00      498     13.2
    11/28/2016 10:30      2.6      131      7.8      132     58.4     58.8     57.9       43     1014     0.00      440     13.2
    11/28/2016 10:45      3.3      136      7.2      157     58.5     59.1     58.1       40     1013     0.00      473     13.2
    11/28/2016 11:00      2.8      139      7.6      124     59.1     59.6     58.5       41     1013     0.00      474     13.1
    11/28/2016 11:15      2.3      113      6.4       64     59.9     60.4     59.4       40     1013     0.00      570     13.1
    11/28/2016 11:30      3.3       98      7.2       53     59.6     60.2     59.2       41     1012     0.00      545     13.1
    11/28/2016 11:45      1.7      168      6.2       55     60.5     61.0     59.9       38     1012     0.00      525     13.1
    11/28/2016 12:00      1.8      101      7.5      114     60.8     61.3     60.4       36     1012     0.00      589     13.1
    11/28/2016 12:15      3.4      154      9.4      160     61.0     61.4     60.6       39     1011     0.00      455     13.1
    11/28/2016 12:30      2.9      177      7.8      162     60.6     61.3     60.0       39     1011     0.00      421     13.1
    11/28/2016 12:45      2.6      165      7.3      162     61.4     62.2     60.6       40     1010     0.00      474     13.1
    11/28/2016 13:00      1.5      190      4.9      190     61.5     62.0     61.0       39     1010     0.00      487     13.1
    11/28/2016 13:15      3.5       76      8.5       51     61.3     62.1     60.7       39     1010     0.00      427     13.1
    11/28/2016 13:30      2.7       55      6.1       72     61.0     61.6     60.5       41     1010     0.00      373     13.1
    11/28/2016 13:45      2.6      125      6.8       80     61.7     62.3     60.9       39     1010     0.00      364     13.1
    11/28/2016 14:00      2.2      109      7.4      147     62.0     62.4     61.8       41     1010     0.00      291     13.1
    11/28/2016 14:15      2.4      154      6.4      122     61.7     62.2     61.4       40     1009     0.00      309     13.1
    11/28/2016 14:30      1.4      134      5.2      131     62.3     62.7     61.8       39     1009     0.00      331     13.1
    11/28/2016 14:45      0.9       84      5.0       48     62.4     63.2     61.6       41     1009     0.00      281     13.1
    11/28/2016 15:00      1.7      166      6.0      145     62.5     63.1     61.9       40     1009     0.00      247     13.1
    11/28/2016 15:15      2.2      146      5.7      140     62.5     63.0     62.0       42     1009     0.00      228     13.0
    11/28/2016 15:30      2.5      168      5.2      159     61.8     62.2     61.5       43     1009     0.00      183     13.0
    11/28/2016 15:45      0.6      137      2.5      105     62.1     62.4     61.9       41     1009     0.00      152     13.1
    11/28/2016 16:00      1.0       68      3.5       74     61.5     62.1     61.0       42     1008     0.00      113     13.1
    11/28/2016 16:15      0.2       85      1.9       79     61.2     61.7     60.7       42     1008     0.00       52     13.1
    11/28/2016 16:30      0.1      342      1.8      338     60.4     61.0     59.8       45     1008     0.00       20     13.1
    11/28/2016 16:45      0.0        0      0.0      300     59.4     60.0     58.6       49     1008     0.00       11     13.2
    11/28/2016 17:00      0.0      330      1.2      323     57.9     58.8     57.1       52     1008     0.00        4     13.2
    11/28/2016 17:15      2.5      329     11.3      272     57.4     58.2     56.8       43     1009     0.00        0     13.2
    11/28/2016 17:30      5.5      346     18.9      339     58.0     58.4     57.6       42     1009     0.00        0     13.3
    11/28/2016 17:45      6.3      352     17.2      352     57.6     57.8     57.3       41     1009     0.00        0     13.3
    11/28/2016 18:00      8.0      333     18.5      343     57.3     57.6     57.0       41     1009     0.00        0     13.3
    11/28/2016 18:15      7.6      334     20.0      322     56.9     57.2     56.6       41     1008     0.00        0     13.3
    11/28/2016 18:30      6.7      342     22.0      314     56.7     56.9     56.4       41     1009     0.00        0     13.3
    11/28/2016 18:45      9.9      350     25.3      343     56.5     56.7     56.3       40     1009     0.00        0     13.3
    11/28/2016 19:00      9.2      343     27.3      340     56.3     56.6     56.0       42     1009     0.00        0     13.3
    11/28/2016 19:15      9.0      342     22.8      306     56.0     56.3     55.7       44     1010     0.00        0     13.3
    11/28/2016 19:30      8.1      341     21.4      355     55.6     55.9     55.3       45     1010     0.00        0     13.3
    11/28/2016 19:45      8.6      337     17.6       -0     55.4     55.6     55.2       46     1010     0.00        0     13.3
    11/28/2016 20:00     10.3      335     20.6      327     55.4     55.6     55.1       46     1010     0.00        0     13.3
    11/28/2016 20:15      9.7      334     20.7      340     55.2     55.4     55.0       47     1010     0.00        0     13.3
    11/28/2016 20:30     10.3      339     22.9      347     55.0     55.3     54.8       46     1010     0.00        0     13.3
    11/28/2016 20:45      9.7      336     22.5      353     55.1     55.4     54.9       45     1010     0.00        0     13.3
    11/28/2016 21:00      8.8      336     21.2      334     54.9     55.2     54.6       46     1010     0.00        0     13.3
    11/28/2016 21:15      7.0      336     21.1      323     54.8     55.0     54.6       46     1010     0.00        0     13.3
    11/28/2016 21:30      7.9      344     22.7      353     54.8     55.0     54.5       46     1010     0.00        0     13.3
    11/28/2016 21:45      8.7      340     22.8        0     54.7     54.9     54.5       48     1010     0.00        0     13.3
    11/28/2016 22:00      7.0      333     19.6      338     54.5     54.7     54.2       49     1011     0.00        0     13.3
    11/28/2016 22:15      5.9      322     16.5      338     54.3     54.5     54.1       50     1011     0.00        0     13.3
    11/28/2016 22:30      6.2      334     20.6      354     54.2     54.4     53.9       50     1011     0.00        0     13.3
    11/28/2016 22:45      4.4      333     18.1       39     54.0     54.3     53.7       50     1011     0.00        0     13.3
    11/28/2016 23:00      3.7      335     12.3      317     54.0     54.2     53.7       50     1011     0.00        0     13.3
    11/28/2016 23:15      1.5      324      7.2        0     53.8     54.1     53.4       50     1011     0.00        0     13.3
    11/28/2016 23:30      2.1      167      6.4      254     53.6     54.1     53.3       49     1011     0.00        0     13.3
    11/28/2016 23:45      2.3      350      8.1      355     53.6     54.2     53.2       50     1012     0.00        0     13.3
    11/29/2016 00:00      2.6      313      8.0      253     53.5     53.9     53.2       50     1012     0.00        0     13.3
    11/29/2016 00:15      1.6      281      6.8      298     53.0     53.4     52.8       51     1011     0.00        0     13.4
    11/29/2016 00:30      1.8      310      6.0      341     52.8     53.0     52.6       51     1011     0.00        0     13.4
    11/29/2016 00:45      3.9      334     11.1      319     53.1     53.5     52.6       49     1011     0.00        0     13.4
    11/29/2016 01:00      4.7      346     17.8      319     53.5     53.8     53.1       47     1011     0.00        0     13.4
    11/29/2016 01:15      5.4      350     17.6      347     53.8     54.2     53.5       46     1011     0.00        0     13.4
    11/29/2016 01:30      8.2      342     20.9      325     54.2     54.7     54.0       44     1011     0.00        0     13.4
    11/29/2016 01:45      8.1      339     18.9      331     54.6     54.9     54.4       43     1011     0.00        0     13.3
    11/29/2016 02:00      7.2      344     20.7      341     54.6     54.9     54.4       42     1011     0.00        0     13.3
    11/29/2016 02:15      6.6      348     19.1      331     54.7     54.9     54.4       40     1011     0.00        0     13.3
    11/29/2016 02:30      6.8      346     19.4      342     54.8     55.0     54.6       39     1011     0.00        0     13.3
    11/29/2016 02:45      6.7      348     16.3       26     55.0     55.3     54.8       39     1011     0.00        0     13.3
    11/29/2016 03:00      5.6      339     14.8       20     54.9     55.0     54.6       37     1011     0.00        0     13.3
    11/29/2016 03:15      6.0      340     14.5      341     54.9     55.1     54.7       35     1011     0.00        0     13.3
    11/29/2016 03:30      4.6      356     14.6       20     55.2     55.4     55.0       34     1011     0.00        0     13.3
    11/29/2016 03:45      4.4      343     17.5      342     55.2     55.8     54.6       32     1011     0.00        0     13.3
    11/29/2016 04:00      5.2      340     16.3      333     55.5     55.7     55.2       33     1011     0.00        0     13.3
    11/29/2016 04:15      6.1      335     15.7      337     55.2     55.5     54.9       32     1011     0.00        0     13.3
    11/29/2016 04:30      6.1      337     15.9        9     55.2     55.4     54.8       33     1011     0.00        0     13.3
    11/29/2016 04:45      6.0      342     16.8      333     55.0     55.3     54.8       32     1012     0.00        0     13.3
    11/29/2016 05:00      6.2      344     18.0      338     54.9     55.1     54.6       31     1012     0.00        0     13.3
    11/29/2016 05:15      7.2      343     19.5        0     55.2     55.4     54.8       31     1012     0.00        0     13.3
    11/29/2016 05:30      5.9      348     14.6      343     54.9     55.2     54.8       31     1012     0.00        0     13.3
    11/29/2016 05:45      4.7      341     13.8      339     54.8     55.0     54.5       30     1012     0.00        0     13.3
    11/29/2016 06:00      5.9      340     18.4      328     54.7     55.0     54.4       30     1013     0.00        0     13.3
    11/29/2016 06:15      6.4      341     18.8      342     54.4     54.6     54.2       29     1013     0.00        0     13.3
    11/29/2016 06:30      5.8      349     17.8      347     54.6     54.8     54.5       28     1013     0.00        0     13.3
    11/29/2016 06:45      5.9      347     16.2      306     54.9     55.2     54.5       27     1013     0.00        3     13.3
    11/29/2016 07:00      6.3      344     20.4      312     55.0     55.3     54.9       27     1014     0.00       10     13.3
    11/29/2016 07:15      5.8      337     14.1      317     55.0     55.3     54.8       26     1014     0.00       19     13.3
    11/29/2016 07:30      6.8      347     21.0      322     55.5     55.8     55.1       25     1014     0.00       27     13.3
    11/29/2016 07:45      6.2      344     18.4      352     55.8     56.0     55.4       24     1014     0.00       28     13.3
    11/29/2016 08:00      7.6      346     19.5       29     56.4     56.8     55.9       22     1014     0.00       36     13.3
    11/29/2016 08:15      6.7      338     17.7      332     56.9     57.2     56.6       22     1014     0.00       44     13.3
    11/29/2016 08:30      6.0      346     18.2      355     57.4     57.9     57.0       21     1015     0.00       65     13.3
    11/29/2016 08:45      7.1      345     19.5       11     58.0     58.5     57.6       20     1015     0.00       91     13.3
    11/29/2016 09:00      6.7      344     21.8      303     58.7     59.4     58.2       18     1015     0.00      246     13.3
    11/29/2016 09:15      8.9      344     17.4      342     59.7     60.1     59.2       17     1015     0.00      233     13.2
    11/29/2016 09:30      8.9      349     20.1      328     60.3     60.7     59.8       16     1015     0.00      406     13.2
    11/29/2016 09:45      7.0      354     18.2      337     61.0     61.5     60.4       16     1016     0.00      438     13.2
    11/29/2016 10:00      7.9      348     22.4      352     61.1     61.5     60.8       16     1016     0.00      461     13.2
    11/29/2016 10:15      6.6      350     17.6      321     61.7     62.5     61.0       17     1016     0.00      491     13.1
    11/29/2016 10:30      6.3      347     17.3      342     62.7     63.1     62.3       16     1016     0.00      517     13.1
    11/29/2016 10:45      6.4      344     14.8      304     63.0     63.3     62.5       16     1016     0.00      518     13.1
    11/29/2016 11:00      6.7      342     18.7        4     63.3     63.5     63.0       16     1015     0.00      547     13.1
    11/29/2016 11:15      7.2      335     18.4      328     63.6     64.0     63.2       15     1015     0.00      555     13.1
    11/29/2016 11:30      5.5      339     15.7      343     64.0     64.7     63.4       15     1015     0.00      563     13.1
    11/29/2016 11:45      6.9      340     16.5       -0     64.1     64.7     63.8       15     1015     0.00      567     13.1
    11/29/2016 12:00      6.0      338     16.8      324     64.5     65.0     64.0       14     1015     0.00      568     13.1
    11/29/2016 12:15      7.0      332     18.3       30     64.8     65.0     64.4       14     1015     0.00      563     13.0
    11/29/2016 12:30      7.7      336     17.1      342     65.0     65.8     64.5       14     1015     0.00      554     13.0
    11/29/2016 12:45      7.3      342     19.7      350     65.5     65.9     65.2       13     1014     0.00      540     13.1
    11/29/2016 13:00      7.4      337     16.7      339     65.5     65.8     65.0       13     1014     0.00      524     13.0
    11/29/2016 13:15      6.6      336     18.5      338     65.8     66.4     65.3       12     1014     0.00      506     13.0
    11/29/2016 13:30      6.1      341     18.4      331     66.1     66.5     65.7       12     1014     0.00      484     13.0
    11/29/2016 13:45      6.9      337     19.0      339     65.9     66.3     65.4       12     1014     0.00      458     13.0
    11/29/2016 14:00      7.2      340     16.6      335     66.0     66.2     65.7       12     1014     0.00      429     13.0
    11/29/2016 14:15      7.4      343     21.0      325     65.8     66.0     65.5       12     1014     0.00      397     13.0
    11/29/2016 14:30      7.5      339     19.9      350     65.6     66.0     65.2       12     1014     0.00      363     13.0
    11/29/2016 14:45      7.7      342     20.7      339     65.4     65.7     65.1       12     1014     0.00      326     13.0
    11/29/2016 15:00      6.6      342     18.1      348     65.3     65.6     65.0       12     1014     0.00      287     13.0
    11/29/2016 15:15      7.4      341     20.1      319     64.9     65.2     64.6       13     1014     0.00      246     13.0
    11/29/2016 15:30      6.1      341     16.6      316     64.7     65.0     64.3       13     1014     0.00      205     13.0
    11/29/2016 15:45      6.1      343     14.7      354     64.2     64.5     63.9       13     1014     0.00      163     13.0
    11/29/2016 16:00      6.2      346     16.4      336     63.7     64.1     63.5       13     1014     0.00      121     13.0
    11/29/2016 16:15      5.7      347     16.6      328     63.1     63.6     62.6       13     1014     0.00       56     13.1
    11/29/2016 16:30      5.6      345     17.0      354     62.4     62.8     62.0       14     1014     0.00       15     13.1
    11/29/2016 16:45      7.0      345     18.6      296     61.9     62.3     61.5       14     1014     0.00        8     13.2
    11/29/2016 17:00      5.0      346     17.1      340     61.3     61.7     61.0       14     1014     0.00        2     13.2
    11/29/2016 17:15      5.5      353     14.8       -0     60.9     61.3     60.5       14     1014     0.00        0     13.2
    11/29/2016 17:30      6.2      352     14.6      345     60.5     60.7     60.2       14     1014     0.00        0     13.2
    11/29/2016 17:45      6.1      359     16.8      349     60.4     60.6     60.1       14     1014     0.00        0     13.2
    11/29/2016 18:00      6.7      352     16.5      354     60.1     60.4     59.8       14     1015     0.00        0     13.3
    11/29/2016 18:15      3.5      347     11.3       15     59.6     60.0     59.0       15     1015     0.00        0     13.3
    11/29/2016 18:30      3.9      340     10.4       17     58.9     59.2     58.6       16     1015     0.00        0     13.3
    11/29/2016 18:45      4.1      347     12.6      354     58.6     59.0     58.3       16     1015     0.00        0     13.3
    11/29/2016 19:00      4.0      345     12.6       14     58.6     58.8     58.4       16     1015     0.00        0     13.3
    11/29/2016 19:15      4.5      345     12.4       18     58.6     59.0     58.3       16     1015     0.00        0     13.3
    11/29/2016 19:30      4.4      350     10.9      355     58.4     58.6     58.0       16     1016     0.00        0     13.3
    11/29/2016 19:45      4.0      345      9.7      334     57.9     58.3     57.6       16     1016     0.00        0     13.3
    11/29/2016 20:00      3.4      354      9.9      354     57.6     58.0     57.2       16     1016     0.00        0     13.3
    11/29/2016 20:15      3.6      346     11.0      339     57.4     57.6     57.1       17     1016     0.00        0     13.3
    11/29/2016 20:30      2.7      348      8.6      328     57.1     57.6     56.9       17     1016     0.00        0     13.3
    11/29/2016 20:45      2.8      338      7.9       13     57.1     57.3     56.9       17     1016     0.00        0     13.3
    11/29/2016 21:00      2.5      346      9.3      323     56.7     57.1     56.4       17     1016     0.00        0     13.3
    11/29/2016 21:15      1.9      340      5.0      351     56.3     56.5     56.0       17     1016     0.00        0     13.3
    11/29/2016 21:30      1.3      344      4.3      349     55.5     56.4     54.8       19     1016     0.00        0     13.3
    11/29/2016 21:45      0.7      142      2.3      183     54.6     55.4     53.4       23     1017     0.00        0     13.3
    11/29/2016 22:00      1.2      129      3.2      150     53.0     53.4     52.6       26     1017     0.00        0     13.4
    11/29/2016 22:15      0.0      198      0.8      198     51.8     52.7     50.8       29     1017     0.00        0     13.4
    11/29/2016 22:30      0.0        0      0.0       97     50.2     51.0     49.5       31     1017     0.00        0     13.4
    11/29/2016 22:45      0.0        0      0.0      133     49.1     49.8     48.5       32     1017     0.00        0     13.4
    11/29/2016 23:00      0.0      320      1.4      321     48.6     49.0     48.3       34     1017     0.00        0     13.4
    11/29/2016 23:15      0.2      323      1.8      311     48.4     48.5     48.1       33     1018     0.00        0     13.4
    11/29/2016 23:30      0.1      332      1.2      328     48.0     48.6     47.3       36     1018     0.00        0     13.4
    11/29/2016 23:45      0.2      126      1.9      137     46.9     47.6     46.5       38     1018     0.00        0     13.4
    11/30/2016 00:00      0.1       97      1.8      133     47.0     47.2     46.6       39     1017     0.00        0     13.4
    11/30/2016 00:15      0.0        0      0.0      168     46.5     46.7     46.2       37     1018     0.00        0     13.5
    11/30/2016 00:30      0.0        0      0.0      165     46.5     46.7     46.3       38     1018     0.00        0     13.5
    11/30/2016 00:45      0.0      284      1.2      285     45.9     46.4     45.3       41     1018     0.00        0     13.5
    11/30/2016 01:00      0.0      342      1.3      340     45.5     45.8     45.3       41     1018     0.00        0     13.5
    11/30/2016 01:15      0.0        0      0.0      317     45.0     45.5     44.7       44     1017     0.00        0     13.5
    11/30/2016 01:30      0.0        0      0.0      327     44.5     44.7     44.2       43     1017     0.00        0     13.5
    11/30/2016 01:45      0.2      329      1.6      337     44.8     45.4     44.3       44     1017     0.00        0     13.5
    11/30/2016 02:00      0.1      338      1.7      343     43.9     44.6     43.4       42     1018     0.00        0     13.5
    11/30/2016 02:15      0.1      329      1.7      332     43.8     44.5     43.2       45     1018     0.00        0     13.5
    11/30/2016 02:30      0.0      345      1.5      343     43.5     44.0     43.1       44     1018     0.00        0     13.5
    11/30/2016 02:45      0.6      354      2.8      344     44.7     45.7     43.8       40     1018     0.00        0     13.5
    11/30/2016 03:00      0.2        7      2.3      336     45.6     45.9     45.1       41     1018     0.00        0     13.5
    11/30/2016 03:15      0.5       67      2.8       62     44.4     45.3     43.8       43     1018     0.00        0     13.5
    11/30/2016 03:30      0.4       96      2.2      131     44.0     44.5     43.4       45     1018     0.00        0     13.5
    11/30/2016 03:45      0.7      138      4.0      154     42.6     43.6     42.0       51     1018     0.00        0     13.5
    11/30/2016 04:00      0.4      283      2.6      292     41.6     42.1     41.1       52     1017     0.00        0     13.5
    11/30/2016 04:15      0.2      328      2.9      339     41.5     41.7     41.2       53     1017     0.00        0     13.5
    11/30/2016 04:30      0.0        0      0.0      273     41.1     41.5     40.7       55     1017     0.00        0     13.5
    11/30/2016 04:45      0.0      325      0.8      324     40.7     41.0     40.4       57     1017     0.00        0     13.5
    11/30/2016 05:00      0.0      336      1.8      337     41.6     42.9     40.3       48     1018     0.00        0     13.5
    11/30/2016 05:15      0.4      333      2.5      339     43.0     43.3     42.6       47     1017     0.00        0     13.5
    11/30/2016 05:30      0.0      329      1.0      334     42.7     43.1     42.1       48     1017     0.00        0     13.5
    11/30/2016 05:45      0.0        0      0.0      329     41.5     42.2     41.1       51     1017     0.00        0     13.5
    11/30/2016 06:00      0.0        0      0.0       78     40.9     41.4     40.4       54     1017     0.00        0     13.5
    11/30/2016 06:15      0.0        0      0.0      108     40.2     40.6     39.7       57     1017     0.00        0     13.6
    11/30/2016 06:30      0.2      287      1.9      286     39.5     39.9     39.1       59     1017     0.00        0     13.6
    11/30/2016 06:45      0.0        0      0.0      299     39.6     39.9     39.1       58     1017     0.00        3     13.6
    11/30/2016 07:00      0.0        0      0.0      311     39.6     40.0     39.2       60     1017     0.00        9     13.6
    11/30/2016 07:15      0.0        0      0.0       17     39.9     40.5     39.2       59     1018     0.00       18     13.6
    11/30/2016 07:30      0.0        0      0.0       13     41.0     41.7     40.0       58     1018     0.00       24     13.5
    11/30/2016 07:45      0.0        0      0.0       80     42.4     43.1     41.5       55     1018     0.00       26     13.5
    11/30/2016 08:00      0.0        0      0.0      156     44.1     45.2     43.0       46     1018     0.00       34     13.5
    11/30/2016 08:15      0.0        0      0.0      186     46.3     47.3     45.1       39     1018     0.00       47     13.5
    11/30/2016 08:30      0.0        0      0.0      303     48.4     49.5     47.2       36     1018     0.00       44     13.5
    11/30/2016 08:45      0.2      238      2.2      251     50.2     51.1     49.3       33     1018     0.00       93     13.4
    11/30/2016 09:00      0.6      221      2.8      194     51.9     53.1     51.0       30     1018     0.00      274     13.4
    11/30/2016 09:15      1.1      208      3.4      177     54.1     55.2     52.8       29     1018     0.00      232     13.3
    11/30/2016 09:30      1.3      205      4.2      178     55.5     56.0     54.9       27     1018     0.00      402     13.3
    11/30/2016 09:45      1.6      235      4.2      256     56.5     57.0     55.9       25     1018     0.00      434     13.2
    11/30/2016 10:00      1.3      214      5.0      188     58.1     58.9     57.0       24     1018     0.00      463     13.2
    11/30/2016 10:15      1.7      176      4.2      181     59.5     60.5     58.3       21     1018     0.00      488     13.2
    11/30/2016 10:30      1.1      220      3.5      172     60.5     61.4     59.9       22     1018     0.00      510     13.1
    11/30/2016 10:45      2.0      178      4.3      168     62.3     63.3     61.2       18     1018     0.00      533     13.1
    11/30/2016 11:00      2.3      146      6.4      166     63.5     64.7     63.0       17     1017     0.00      527     13.1
    11/30/2016 11:15      2.8      176      5.2      133     64.6     65.0     64.1       15     1017     0.00      552     13.1
    11/30/2016 11:30      1.6      220      4.1      200     64.7     65.4     63.6       15     1016     0.00      564     13.1
    11/30/2016 11:45      2.9      191      6.3      247     65.2     65.9     64.5       14     1016     0.00      567     13.0
    11/30/2016 12:00      3.0      166      6.7      158     66.3     67.7     64.9       13     1016     0.00      567     13.0
    11/30/2016 12:15      2.7      180      6.8      170     66.1     67.0     65.3       15     1015     0.00      563     13.0
    11/30/2016 12:30      1.8      145      5.2      167     67.9     68.5     66.8       13     1015     0.00      555     13.0
    11/30/2016 12:45      2.5      189      5.3      158     68.2     69.1     67.2       15     1015     0.00      542     13.0
    11/30/2016 13:00      3.6      165      7.4      191     67.4     68.2     66.8       14     1014     0.00      526     13.0
    11/30/2016 13:15      1.8      146      5.1      142     67.5     67.7     67.1       13     1014     0.00      506     13.0
    11/30/2016 13:30      3.4      204      7.1      167     67.6     68.2     67.3       13     1014     0.00      482     13.0
    11/30/2016 13:45      1.7      206      4.6      197     67.7     68.1     67.2       13     1014     0.00      455     13.0
    11/30/2016 14:00      1.5       59      4.7       82     68.0     68.5     67.6       13     1014     0.00      426     13.0
    11/30/2016 14:15      2.1      141      5.6      165     68.5     69.5     67.9       13     1014     0.00      394     13.0
    11/30/2016 14:30      2.6      164      7.6      175     69.2     70.0     68.3       15     1014     0.00      360     13.0
    11/30/2016 14:45      3.8      147      8.3      146     68.0     69.1     67.5       16     1014     0.00      321     13.0
    11/30/2016 15:00      4.0      142      9.3      168     67.4     67.9     66.8       16     1013     0.00      281     13.0
    11/30/2016 15:15      3.7      176      7.8      187     66.8     67.7     65.7       17     1014     0.00      240     13.0
    11/30/2016 15:30      2.7      254      7.5      273     65.8     66.2     65.4       17     1014     0.00      200     13.0
    11/30/2016 15:45      5.7      265     13.5      256     64.6     65.7     63.7       22     1014     0.00      161     13.0
    11/30/2016 16:00      5.8      262     10.7      256     63.4     64.0     63.0       21     1014     0.00      116     13.0
    11/30/2016 16:15      5.1      258     13.8      251     62.2     63.1     61.3       22     1014     0.00       52     13.1
    11/30/2016 16:30      4.6      256      9.5      261     61.0     61.5     60.3       24     1014     0.00       12     13.1
    11/30/2016 16:45      4.4      249      9.8      248     59.9     60.4     59.4       25     1014     0.00        7     13.2
    11/30/2016 17:00      2.7      246      7.2      238     59.0     59.6     58.4       25     1014     0.00        2     13.2
    11/30/2016 17:15      2.1      252      5.9      259     58.3     58.7     57.8       27     1014     0.00        0     13.2
    11/30/2016 17:30      3.0      251      5.1      260     57.5     57.8     57.3       28     1014     0.00        0     13.3
    11/30/2016 17:45      3.4      256      6.5      247     57.3     57.5     57.0       29     1014     0.00        0     13.3
    11/30/2016 18:00      2.3      249      5.3      261     56.5     57.2     55.7       32     1014     0.00        0     13.3
    11/30/2016 18:15      2.6      254      5.7      247     55.9     56.2     55.6       35     1014     0.00        0     13.3
    11/30/2016 18:30      1.5      250      4.0      259     55.0     55.8     54.3       40     1014     0.00        0     13.3
    11/30/2016 18:45      2.7      248      5.3      241     54.6     54.9     54.1       40     1014     0.00        0     13.3
    11/30/2016 19:00      2.6      252      6.2      249     54.2     54.7     53.9       39     1014     0.00        0     13.3
    11/30/2016 19:15      0.3      283      2.1      294     53.3     54.2     52.2       43     1014     0.00        0     13.3
    11/30/2016 19:30      0.0      315      0.6      305     51.7     52.4     50.9       46     1014     0.00        0     13.3
    11/30/2016 19:45      0.0        0      0.0      251     50.5     51.0     50.1       46     1014     0.00        0     13.3
    11/30/2016 20:00      0.0        0      0.0      263     50.3     50.5     50.0       47     1014     0.00        0     13.4
    11/30/2016 20:15      0.0        0      0.0      327     49.7     50.0     49.4       49     1014     0.00        0     13.4
    11/30/2016 20:30      0.0        0      0.0      320     49.1     49.8     48.8       51     1014     0.00        0     13.4
    11/30/2016 20:45      0.0      347      0.9      345     49.4     49.7     49.0       52     1014     0.00        0     13.4
    11/30/2016 21:00      0.0        0      0.0      342     48.4     49.3     47.6       55     1014     0.00        0     13.4
    11/30/2016 21:15      0.0        0      0.0      317     47.5     47.8     47.2       56     1014     0.00        0     13.4
    11/30/2016 21:30      0.0        0      0.0       34     47.2     47.6     46.5       57     1014     0.00        0     13.4
    11/30/2016 21:45      0.0        0      0.0       43     46.7     47.2     46.3       56     1014     0.00        0     13.4
    11/30/2016 22:00      0.0        0      0.0      340     47.1     47.5     46.7       56     1014     0.00        0     13.4
    11/30/2016 22:15      0.0        0      0.0       29     46.5     46.9     46.1       57     1014     0.00        0     13.4
    11/30/2016 22:30      0.0        0      0.0      344     46.2     46.6     45.9       56     1014     0.00        0     13.4
    11/30/2016 22:45      0.0        0      0.0      349     46.3     46.8     45.9       56     1014     0.00        0     13.4
    11/30/2016 23:00      0.0        0      0.0       26     46.3     46.6     46.1       57     1014     0.00        0     13.4
    11/30/2016 23:15      0.0        0      0.0       -0     46.2     46.4     46.0       57     1014     0.00        0     13.4
    11/30/2016 23:30      0.0       16      1.1      339     46.4     46.9     45.8       55     1015     0.00        0     13.5
    11/30/2016 23:45      0.7       37      3.9       41     46.1     46.9     45.6       52     1015     0.00        0     13.5
    12/01/2016 00:00      0.1       47      2.2       70     47.0     47.5     46.0       53     1014     0.00        0     13.5
    12/01/2016 00:15      0.0        6      1.2       17     45.3     46.2     44.4       59     1014     0.00        0     13.5
    12/01/2016 00:30      0.0        0      0.0      285     44.7     44.9     44.4       59     1015     0.00        0     13.5
    12/01/2016 00:45      0.0        0      0.0      261     44.5     44.8     44.2       61     1014     0.00        0     13.5
    12/01/2016 01:00      0.0        0      0.0      260     44.5     44.7     44.3       61     1014     0.00        0     13.5
    12/01/2016 01:15      0.0        0      0.0      246     44.9     45.4     44.3       59     1014     0.00        0     13.5
    12/01/2016 01:30      0.0        0      0.0      354     45.4     45.7     45.2       61     1014     0.00        0     13.5
    12/01/2016 01:45      0.0        0      0.0      316     45.6     46.0     45.3       60     1014     0.00        0     13.5
    12/01/2016 02:00      0.0        0      0.0      335     45.6     46.1     45.2       63     1014     0.00        0     13.4
    12/01/2016 02:15      0.0      292      0.7      289     45.4     46.0     45.0       59     1014     0.00        0     13.4
    12/01/2016 02:30      0.0        0      0.0      316     46.0     46.2     45.8       59     1014     0.00        0     13.4
    12/01/2016 02:45      0.0      335      1.4      345     46.3     46.5     45.9       60     1014     0.00        0     13.4
    12/01/2016 03:00      0.0        0      0.0      325     46.4     46.9     45.9       58     1014     0.00        0     13.4
    12/01/2016 03:15      0.1      346      1.8      344     47.1     47.6     46.5       54     1014     0.00        0     13.4
    12/01/2016 03:30      0.0        0      0.0       16     47.3     47.7     46.7       58     1013     0.00        0     13.4
    12/01/2016 03:45      0.0        0      0.0       18     46.4     47.0     45.8       59     1013     0.00        0     13.4
    12/01/2016 04:00      0.0        0      0.0      199     45.5     45.9     45.3       62     1013     0.00        0     13.4
    12/01/2016 04:15      0.0        0      0.0      226     45.3     45.6     45.0       64     1013     0.00        0     13.4
    12/01/2016 04:30      0.0        0      0.0      337     45.3     45.5     45.0       63     1013     0.00        0     13.5
    12/01/2016 04:45      0.0        0      0.0      333     44.7     45.2     44.2       65     1013     0.00        0     13.5
    12/01/2016 05:00      0.0        0      0.0      309     44.4     44.7     44.2       64     1013     0.00        0     13.5
    12/01/2016 05:15      0.0        0      0.0      130     44.2     44.6     43.8       66     1013     0.00        0     13.5
    12/01/2016 05:30      0.0      265      1.7      301     44.0     44.3     43.8       67     1013     0.00        0     13.5
    12/01/2016 05:45      0.0        0      0.0      202     44.2     44.4     44.0       66     1013     0.00        0     13.5
    12/01/2016 06:00      0.0        0      0.0      338     44.9     45.2     44.4       65     1013     0.00        0     13.5
    12/01/2016 06:15      0.0        0      0.0       60     44.7     45.0     44.3       66     1013     0.00        0     13.5
    12/01/2016 06:30      0.0        0      0.0      341     44.2     44.5     43.9       67     1013     0.00        0     13.5
    12/01/2016 06:45      0.0        0      0.0      294     43.8     44.1     43.5       68     1013     0.00        2     13.5
    12/01/2016 07:00      0.0        0      0.0      317     44.0     44.5     43.4       65     1013     0.00       15     13.5
    12/01/2016 07:15      0.0        0      0.0      299     44.6     45.3     44.3       62     1013     0.00       27     13.5
    12/01/2016 07:30      0.0        0      0.0      301     45.5     45.8     45.2       62     1014     0.00       37     13.5
    12/01/2016 07:45      0.2       87      1.9       92     46.5     47.5     45.6       59     1014     0.00       74     13.4
    12/01/2016 08:00      0.0        0      0.0      149     47.9     48.4     47.4       58     1014     0.00       54     13.4
    12/01/2016 08:15      0.4      258      2.9      261     48.8     49.1     48.3       53     1014     0.00       73     13.4
    12/01/2016 08:30      0.0      265      1.1      265     49.0     49.3     48.8       53     1015     0.00       89     13.4
    12/01/2016 08:45      0.0      321      0.7      312     49.5     49.9     49.0       52     1015     0.00       94     13.4
    12/01/2016 09:00      0.5      261      2.9      256     50.2     50.6     49.8       51     1015     0.00      110     13.4
    12/01/2016 09:15      0.0      310      1.1      343     51.0     51.7     50.4       47     1015     0.00      133     13.3
    12/01/2016 09:30      0.0       14      0.3       18     52.6     53.7     51.5       45     1015     0.00      192     13.3
    12/01/2016 09:45      0.5       67      2.9       63     54.7     56.4     53.6       38     1015     0.00      245     13.3
    12/01/2016 10:00      1.7       48      5.2       93     58.0     59.1     56.4       30     1015     0.00      429     13.3
    12/01/2016 10:15      2.7       38      6.9       34     59.0     59.4     58.4       29     1015     0.00      450     13.2
    12/01/2016 10:30      1.4       44      5.0       67     59.6     60.3     59.0       30     1014     0.00      491     13.2
    12/01/2016 10:45      2.9      107      7.1      128     60.6     61.3     60.2       33     1014     0.00      535     13.1
    12/01/2016 11:00      3.5      141      8.3      143     61.3     62.0     60.8       32     1014     0.00      521     13.1
    12/01/2016 11:15      3.0      123      6.3      142     61.3     62.1     60.8       32     1014     0.00      534     13.1
    12/01/2016 11:30      3.3      128      6.9       83     61.7     62.1     61.0       31     1013     0.00      542     13.1
    12/01/2016 11:45      3.6      140      9.5      150     62.2     63.1     61.3       27     1013     0.00      548     13.1
    12/01/2016 12:00      3.4      142      7.5      151     63.1     63.7     62.7       28     1013     0.00      563     13.1
    12/01/2016 12:15      2.7      129      6.5      145     63.9     64.8     62.4       27     1013     0.00      433     13.1
    12/01/2016 12:30      2.0      118      6.2      147     63.1     64.4     62.2       24     1013     0.00      459     13.1
    12/01/2016 12:45      3.1      115      8.2      165     63.6     64.2     63.0       25     1012     0.00      535     13.1
    12/01/2016 13:00      3.7      159      7.4      161     65.0     65.6     64.2       22     1012     0.00      513     13.0
    12/01/2016 13:15      2.4      199      5.8      147     64.8     66.4     64.1       22     1012     0.00      440     13.0
    12/01/2016 13:30      1.4       96      5.7       77     65.5     66.5     64.8       17     1012     0.00      466     13.0
    12/01/2016 13:45      5.3      310     14.0       17     64.8     65.1     64.5       22     1012     0.00      437     13.0
    12/01/2016 14:00      2.8       29      7.1       69     65.3     66.0     64.6       17     1012     0.00      411     13.0
    12/01/2016 14:15      3.7      311     10.7      342     65.5     66.2     65.0       17     1012     0.00      379     13.0
    12/01/2016 14:30      3.6      342      9.2      244     65.3     65.9     64.8       17     1011     0.00      348     13.0
    12/01/2016 14:45      3.8        1     14.6      263     65.3     65.6     64.9       18     1011     0.00      311     13.0
    12/01/2016 15:00      2.1      345     11.1      347     65.5     65.9     64.8       16     1011     0.00      272     13.0
    12/01/2016 15:15      4.2      338     11.6      351     65.1     65.7     64.4       16     1011     0.00      234     13.0
    12/01/2016 15:30      4.7      336     11.4      345     64.4     64.6     64.2       16     1011     0.00      193     13.0
    12/01/2016 15:45      3.5      329      9.7       -0     64.1     64.4     63.9       16     1011     0.00      153     13.0
    12/01/2016 16:00      3.5      331     10.6      328     63.9     64.1     63.5       16     1011     0.00      114     13.0
    12/01/2016 16:15      4.4      340     11.7      347     63.2     63.7     62.7       16     1011     0.00       57     13.1
    12/01/2016 16:30      3.4      338     10.7      337     62.5     62.8     62.1       16     1011     0.00       16     13.1
    12/01/2016 16:45      4.2      337     12.6        0     61.8     62.3     61.3       17     1011     0.00        8     13.2
    12/01/2016 17:00      3.9      335     11.6      344     61.2     61.5     60.8       17     1012     0.00        2     13.2
    12/01/2016 17:15      2.6      295      8.9      331     60.1     61.0     58.6       34     1012     0.00        0     13.2
    12/01/2016 17:30      2.5      293      5.8      277     57.9     58.7     57.2       32     1012     0.00        0     13.2
    12/01/2016 17:45      2.1      294      7.1      274     56.9     57.9     56.2       42     1012     0.00        0     13.3
    12/01/2016 18:00      2.3      291      4.5      293     56.1     56.6     55.6       33     1012     0.00        0     13.3
    12/01/2016 18:15      2.7      319     11.1        2     56.6     57.0     56.0       32     1012     0.00        0     13.3
    12/01/2016 18:30      4.5      324     12.8      347     56.1     56.6     55.4       34     1012     0.00        0     13.3
    12/01/2016 18:45      5.7      327     15.6      334     55.0     55.5     54.5       37     1012     0.00        0     13.3
    12/01/2016 19:00      4.8      326     14.4      336     54.5     54.8     54.3       38     1012     0.00        0     13.3
    12/01/2016 19:15      4.5      332     14.2      346     54.3     54.6     54.0       40     1012     0.00        0     13.3
    12/01/2016 19:30      5.0      346     15.7      332     53.9     54.1     53.7       40     1012     0.00        0     13.3
    12/01/2016 19:45      5.3      342     14.2      343     53.9     54.1     53.6       39     1012     0.00        0     13.3
    12/01/2016 20:00      4.7      337     12.2       18     53.9     54.1     53.7       38     1013     0.00        0     13.3
    12/01/2016 20:15      5.6      336     13.6      341     53.9     54.2     53.7       36     1013     0.00        0     13.3
    12/01/2016 20:30      4.9        3     10.4      306     53.9     54.4     53.6       38     1013     0.00        0     13.3
    12/01/2016 20:45      3.6        8     12.5      321     53.5     53.9     53.1       39     1013     0.00        0     13.3
    12/01/2016 21:00      3.6       27      8.8      355     53.1     53.5     52.9       40     1013     0.00        0     13.3
    12/01/2016 21:15      5.3       39     10.4       58     53.3     53.6     52.8       38     1013     0.00        0     13.3
    12/01/2016 21:30      3.0       22      8.3       48     53.2     53.6     52.8       40     1013     0.00        0     13.3
    12/01/2016 21:45      2.9      356      8.5      338     52.8     53.0     52.6       40     1013     0.00        0     13.4
    12/01/2016 22:00      4.5      353     14.5        3     53.2     53.8     52.6       38     1013     0.00        0     13.4
    12/01/2016 22:15      4.3      345     13.2      335     53.5     53.8     53.2       39     1013     0.00        0     13.4
    12/01/2016 22:30      2.9       19      9.9      339     53.3     53.6     53.0       39     1013     0.00        0     13.4
    12/01/2016 22:45      1.8      356      9.1        4     53.0     53.2     52.7       40     1013     0.00        0     13.4
    12/01/2016 23:00      2.5      346     11.0      320     53.0     53.3     52.6       40     1014     0.00        0     13.4
    12/01/2016 23:15      2.9      357     12.9        3     52.9     53.1     52.6       41     1014     0.00        0     13.4
    12/01/2016 23:30      2.8      349     10.3      294     52.9     53.2     52.6       41     1013     0.00        0     13.4
    12/01/2016 23:45      3.9      344     11.2      350     52.8     53.0     52.5       42     1013     0.00        0     13.4
    12/02/2016 00:00      4.0      348     12.2       28     52.6     52.9     52.4       42     1013     0.00        0     13.4
    12/02/2016 00:15      3.5      337     12.1      318     52.3     52.5     52.0       43     1013     0.00        0     13.4
    12/02/2016 00:30      2.4      343     11.0      320     52.2     52.4     51.9       42     1014     0.00        0     13.4
    12/02/2016 00:45      2.2      346      8.9      328     52.0     52.3     51.8       41     1014     0.00        0     13.4
    12/02/2016 01:00      4.5      345     14.1      345     52.2     52.5     51.9       40     1014     0.00        0     13.4
    12/02/2016 01:15      6.0      350     17.1      343     52.3     52.6     52.1       40     1014     0.00        0     13.4
    12/02/2016 01:30      5.7      348     16.4      352     52.3     52.5     52.0       41     1014     0.00        0     13.4
    12/02/2016 01:45      5.9      354     15.4      341     52.3     52.5     52.1       41     1014     0.00        0     13.4
    12/02/2016 02:00      5.6      343     14.9        7     52.2     52.5     52.0       41     1014     0.00        0     13.4
    12/02/2016 02:15      5.1      346     13.5        3     52.0     52.4     51.8       42     1014     0.00        0     13.4
    12/02/2016 02:30      5.8      339     13.6      304     51.8     52.1     51.6       40     1014     0.00        0     13.4
    12/02/2016 02:45      7.1      343     16.2      332     52.2     52.5     51.8       37     1014     0.00        0     13.4
    12/02/2016 03:00      7.2      343     17.4      355     52.6     52.9     52.3       33     1014     0.00        0     13.4
    12/02/2016 03:15      6.9      342     16.8       11     52.8     53.1     52.5       31     1014     0.00        0     13.4
    12/02/2016 03:30      5.5      339     15.0      287     52.8     53.1     52.4       30     1014     0.00        0     13.4
    12/02/2016 03:45      6.1      334     14.0      331     52.7     52.8     52.5       29     1014     0.00        0     13.4
    12/02/2016 04:00      5.5      330     11.4      332     52.4     52.7     52.1       29     1014     0.00        0     13.4
    12/02/2016 04:15      4.2      330     11.6      341     52.3     52.5     52.1       28     1014     0.00        0     13.4
    12/02/2016 04:30      3.1      324     10.3      344     51.8     52.4     51.3       28     1014     0.00        0     13.4
    12/02/2016 04:45      2.7      323      7.9      340     51.1     51.5     50.9       28     1014     0.00        0     13.4
    12/02/2016 05:00      3.3      329      9.4      330     51.2     51.5     50.9       26     1014     0.00        0     13.4
    12/02/2016 05:15      5.2      331     15.2        0     51.6     52.0     51.2       25     1014     0.00        0     13.4
    12/02/2016 05:30      4.4      336     10.7      338     51.7     52.1     51.5       24     1015     0.00        0     13.4
    12/02/2016 05:45      4.5      346     15.1      352     51.9     52.5     51.5       22     1015     0.00        0     13.4
    12/02/2016 06:00      6.0      353     16.1      328     52.3     52.5     52.0       22     1015     0.00        0     13.4
    12/02/2016 06:15      3.9      349     11.1      346     52.0     52.4     51.8       22     1015     0.00        0     13.4
    12/02/2016 06:30      3.3      351     10.3        6     51.9     52.1     51.6       23     1015     0.00        0     13.4
    12/02/2016 06:45      4.2        2     12.3        6     52.0     52.4     51.6       22     1015     0.00        2     13.4
    12/02/2016 07:00      3.9       16     12.1       72     51.9     52.1     51.6       21     1015     0.00        9     13.4
    12/02/2016 07:15      4.2       25     12.8      354     51.9     52.1     51.7       22     1016     0.00       19     13.4
    12/02/2016 07:30      5.0      360     12.5      347     52.0     52.3     51.6       21     1016     0.00       28     13.4
    12/02/2016 07:45      4.1      356     12.8        0     52.3     52.5     52.1       22     1016     0.00       33     13.4
    12/02/2016 08:00      3.8        8     11.8       -0     52.5     52.7     52.2       21     1016     0.00       40     13.4
    12/02/2016 08:15      5.5        0     13.5        9     52.6     52.9     52.3       20     1016     0.00       50     13.4
    12/02/2016 08:30      7.4        8     19.9      340     53.1     53.4     52.7       18     1016     0.00       56     13.4
    12/02/2016 08:45      7.4       13     19.4       40     53.5     54.0     53.1       17     1016     0.00       98     13.3
    12/02/2016 09:00      9.3       10     22.6       18     54.1     54.8     53.7       16     1016     0.00      193     13.3
    12/02/2016 09:15      7.7       15     27.8       63     54.7     55.0     54.4       16     1016     0.00      178     13.3
    12/02/2016 09:30     11.0        3     24.1       17     54.8     55.0     54.5       16     1016     0.00      239     13.3
    12/02/2016 09:45      8.3        7     22.0       16     55.1     55.6     54.5       15     1016     0.00      291     13.3
    12/02/2016 10:00      9.8       20     22.1       50     55.9     56.3     55.5       15     1016     0.00      358     13.3
    12/02/2016 10:15     10.3       32     28.9       44     56.5     57.0     56.0       15     1016     0.00      397     13.2
    12/02/2016 10:30     12.7       32     25.7       35     56.9     57.2     56.7       14     1016     0.00      402     13.2
    12/02/2016 10:45     11.1       24     26.2       37     57.1     57.5     56.8       14     1016     0.00      398     13.2
    12/02/2016 11:00      9.4       18     25.0      340     57.7     58.2     57.4       14     1016     0.00      430     13.2
    12/02/2016 11:15     11.5       26     24.6       10     57.9     58.4     57.5       14     1016     0.00      462     13.2
    12/02/2016 11:30     13.8       41     30.1       72     57.5     57.9     57.1       14     1016     0.00      445     13.2
    12/02/2016 11:45     11.9       41     24.0       47     58.2     58.5     57.7       12     1016     0.00      501     13.2
    12/02/2016 12:00     12.5       36     29.9       62     58.5     58.9     58.2       12     1016     0.00      473     13.2
    12/02/2016 12:15      9.9       26     24.6        9     59.1     59.9     58.3       12     1015     0.00      484     13.2
    12/02/2016 12:30      8.4        9     20.3       14     60.0     60.5     59.4       12     1015     0.00      488     13.2
    12/02/2016 12:45      9.4       14     23.6      337     59.4     59.8     59.1       12     1015     0.00      474     13.2
    12/02/2016 13:00      9.8       19     27.6       53     59.5     59.9     59.2       12     1015     0.00      443     13.2
    12/02/2016 13:15      9.3       16     24.6      352     59.4     60.0     59.0       12     1015     0.00      476     13.1
    12/02/2016 13:30     11.1       26     24.5       60     59.5     59.8     59.1       11     1015     0.00      472     13.1
    12/02/2016 13:45     10.3       37     26.5       60     59.4     60.0     58.9       11     1015     0.00      451     13.1
    12/02/2016 14:00     10.2       24     24.2       65     59.4     59.8     59.1       11     1015     0.00      413     13.1
    12/02/2016 14:15      9.9       31     22.8        5     59.3     59.5     59.0       11     1015     0.00      389     13.1
    12/02/2016 14:30      9.6       32     27.3       41     59.3     59.7     59.0       10     1015     0.00      337     13.1
    12/02/2016 14:45      7.8       27     25.6       67     59.4     59.8     58.9       10     1016     0.00      292     13.1
    12/02/2016 15:00      9.6       37     21.7       43     59.2     59.5     59.0       10     1016     0.00      255     13.1
    12/02/2016 15:15      9.4       38     21.9       51     59.1     59.4     58.6        9     1016     0.00      221     13.1
    12/02/2016 15:30      8.5       46     21.7       52     58.9     59.1     58.7       10     1016     0.00      181     13.1
    12/02/2016 15:45      6.1       27     15.5       34     58.9     59.2     58.8       10     1016     0.00      138     13.1
    12/02/2016 16:00      6.2       16     19.8       20     58.8     59.2     58.5        9     1016     0.00      109     13.2
    12/02/2016 16:15      6.4       13     16.5        3     58.3     58.7     57.8       10     1016     0.00       58     13.2
    12/02/2016 16:30      6.8       11     18.3       17     57.6     58.0     57.3       10     1016     0.00       18     13.2
    12/02/2016 16:45      6.5       17     18.7       33     57.1     57.4     56.8       10     1016     0.00        8     13.3
    12/02/2016 17:00      6.7        9     17.4       23     56.8     57.1     56.5       11     1016     0.00        2     13.3
    12/02/2016 17:15      5.8       10     13.0      319     56.2     56.7     55.8       11     1016     0.00        0     13.3
    12/02/2016 17:30      5.1        7     13.2      339     55.8     56.1     55.5       11     1016     0.00        0     13.3
    12/02/2016 17:45      4.0       11     15.3       46     55.6     55.9     55.3       11     1016     0.00        0     13.3
    12/02/2016 18:00      3.8        7     13.9      325     55.4     55.6     55.2       11     1016     0.00        0     13.3
    12/02/2016 18:15      4.0       18     13.5      305     55.5     55.8     55.2       11     1016     0.00        0     13.3
    12/02/2016 18:30      3.4       14     10.7       30     55.6     55.9     55.4       11     1017     0.00        0     13.3
    12/02/2016 18:45      4.7        1     15.1      337     55.4     55.7     55.1       11     1017     0.00        0     13.3
    12/02/2016 19:00      5.0      360     13.4      350     55.7     56.1     55.4       11     1017     0.00        0     13.3
    12/02/2016 19:15      4.2       18     13.6       36     56.0     56.2     55.4       11     1017     0.00        0     13.3
    12/02/2016 19:30      4.1       23     16.5      347     55.9     56.2     55.6       11     1017     0.00        0     13.3
    12/02/2016 19:45      6.3       44     14.3       42     56.3     56.6     56.0       11     1017     0.00        0     13.3
    12/02/2016 20:00      6.2       38     16.4       43     56.5     57.0     56.1       10     1017     0.00        0     13.3
    12/02/2016 20:15      3.6       15     13.2       30     56.4     56.9     56.0       11     1017     0.00        0     13.3
    12/02/2016 20:30      6.5       32     19.0       29     56.5     57.0     56.0       11     1017     0.00        0     13.3
    12/02/2016 20:45      6.9       29     23.1       44     56.9     57.2     56.5       11     1017     0.00        0     13.3
    12/02/2016 21:00      5.8       28     12.9       17     56.8     57.0     56.5       10     1017     0.00        0     13.3
    12/02/2016 21:15      6.0       23     16.8       14     56.7     57.0     56.5       11     1018     0.00        0     13.3
    12/02/2016 21:30      6.2       21     18.8      345     56.6     56.8     56.4       11     1018     0.00        0     13.3
    12/02/2016 21:45      6.4       29     18.5       45     56.6     57.0     56.2       11     1018     0.00        0     13.3
    12/02/2016 22:00      7.6       24     16.8       45     56.6     56.8     56.4       10     1018     0.00        0     13.3
    12/02/2016 22:15      8.9       40     21.0       33     56.9     57.1     56.5       10     1018     0.00        0     13.3
    12/02/2016 22:30     10.1       36     25.7       59     56.8     57.2     56.6       10     1018     0.00        0     13.3
    12/02/2016 22:45      9.2       33     21.7       44     56.8     57.0     56.6       10     1018     0.00        0     13.3
    12/02/2016 23:00      8.8       27     24.7       54     56.8     57.0     56.5       10     1018     0.00        0     13.3
    12/02/2016 23:15     10.0       26     25.5       42     56.8     57.1     56.5       10     1018     0.00        0     13.3